sensor_id;sensor_type;location;lat;lon;timestamp;P1;durP1;ratioP1;P2;durP2;ratioP2
69527;SDS011;57136;51.986;4.468;2022-11-20T00:01:45;18.20;;;8.68;;
69527;SDS011;57136;51.986;4.468;2022-11-20T00:04:10;15.63;;;9.00;;
69527;SDS011;57136;51.986;4.468;2022-11-20T00:06:37;12.68;;;7.30;;
69527;SDS011;57136;51.986;4.468;2022-11-20T00:09:02;15.68;;;8.30;;
69527;SDS011;57136;51.986;4.468;2022-11-20T00:11:28;16.40;;;7.85;;
69527;SDS011;57136;51.986;4.468;2022-11-20T00:13:56;14.45;;;7.72;;
69527;SDS011;57136;51.986;4.468;2022-11-20T00:16:23;17.23;;;7.93;;
69527;SDS011;57136;51.986;4.468;2022-11-20T00:18:50;13.90;;;7.47;;
69527;SDS011;57136;51.986;4.468;2022-11-20T00:21:17;15.65;;;7.65;;
69527;SDS011;57136;51.986;4.468;2022-11-20T00:23:44;14.68;;;7.43;;
69527;SDS011;57136;51.986;4.468;2022-11-20T00:26:11;15.63;;;7.95;;
69527;SDS011;57136;51.986;4.468;2022-11-20T00:28:39;18.10;;;8.55;;
69527;SDS011;57136;51.986;4.468;2022-11-20T00:31:12;17.17;;;8.32;;
69527;SDS011;57136;51.986;4.468;2022-11-20T00:33:39;17.17;;;7.95;;
69527;SDS011;57136;51.986;4.468;2022-11-20T00:36:06;19.17;;;8.30;;
69527;SDS011;57136;51.986;4.468;2022-11-20T00:38:33;16.67;;;8.20;;
69527;SDS011;57136;51.986;4.468;2022-11-20T00:41:00;16.13;;;8.68;;
69527;SDS011;57136;51.986;4.468;2022-11-20T00:43:29;17.33;;;7.85;;
69527;SDS011;57136;51.986;4.468;2022-11-20T00:46:02;18.00;;;8.48;;
69527;SDS011;57136;51.986;4.468;2022-11-20T00:48:30;18.58;;;7.88;;
69527;SDS011;57136;51.986;4.468;2022-11-20T00:50:55;20.20;;;8.98;;
69527;SDS011;57136;51.986;4.468;2022-11-20T00:53:21;16.17;;;8.20;;
69527;SDS011;57136;51.986;4.468;2022-11-20T00:56:00;13.35;;;7.53;;
69527;SDS011;57136;51.986;4.468;2022-11-20T00:58:31;18.17;;;9.07;;
69527;SDS011;57136;51.986;4.468;2022-11-20T01:01:02;15.88;;;7.40;;
69527;SDS011;57136;51.986;4.468;2022-11-20T01:03:30;18.45;;;8.40;;
69527;SDS011;57136;51.986;4.468;2022-11-20T01:06:01;17.67;;;8.20;;
69527;SDS011;57136;51.986;4.468;2022-11-20T01:08:32;14.05;;;7.28;;
69527;SDS011;57136;51.986;4.468;2022-11-20T01:11:04;15.23;;;8.35;;
69527;SDS011;57136;51.986;4.468;2022-11-20T01:13:31;15.80;;;8.05;;
69527;SDS011;57136;51.986;4.468;2022-11-20T01:16:07;18.42;;;8.95;;
69527;SDS011;57136;51.986;4.468;2022-11-20T01:18:36;17.23;;;8.52;;
69527;SDS011;57136;51.986;4.468;2022-11-20T01:21:04;16.92;;;8.70;;
69527;SDS011;57136;51.986;4.468;2022-11-20T01:23:31;19.88;;;9.18;;
69527;SDS011;57136;51.986;4.468;2022-11-20T01:26:02;16.27;;;8.70;;
69527;SDS011;57136;51.986;4.468;2022-11-20T01:28:29;19.20;;;7.82;;
69527;SDS011;57136;51.986;4.468;2022-11-20T01:30:55;19.23;;;8.48;;
69527;SDS011;57136;51.986;4.468;2022-11-20T01:33:21;16.42;;;8.73;;
69527;SDS011;57136;51.986;4.468;2022-11-20T01:35:46;16.60;;;8.30;;
69527;SDS011;57136;51.986;4.468;2022-11-20T01:38:11;20.65;;;9.35;;
69527;SDS011;57136;51.986;4.468;2022-11-20T01:40:37;16.15;;;8.10;;
69527;SDS011;57136;51.986;4.468;2022-11-20T01:46:30;17.65;;;8.98;;
69527;SDS011;57136;51.986;4.468;2022-11-20T01:49:00;17.90;;;8.18;;
69527;SDS011;57136;51.986;4.468;2022-11-20T01:54:36;21.10;;;9.40;;
69527;SDS011;57136;51.986;4.468;2022-11-20T01:57:05;18.02;;;9.18;;
69527;SDS011;57136;51.986;4.468;2022-11-20T01:59:34;19.00;;;8.27;;
69527;SDS011;57136;51.986;4.468;2022-11-20T02:02:05;16.55;;;8.43;;
69527;SDS011;57136;51.986;4.468;2022-11-20T02:04:30;15.10;;;7.68;;
69527;SDS011;57136;51.986;4.468;2022-11-20T02:06:59;17.83;;;9.80;;
69527;SDS011;57136;51.986;4.468;2022-11-20T02:09:27;17.20;;;8.38;;
69527;SDS011;57136;51.986;4.468;2022-11-20T02:11:53;18.52;;;9.10;;
69527;SDS011;57136;51.986;4.468;2022-11-20T02:14:19;18.13;;;9.05;;
69527;SDS011;57136;51.986;4.468;2022-11-20T02:16:47;16.58;;;8.27;;
69527;SDS011;57136;51.986;4.468;2022-11-20T02:19:27;17.25;;;9.27;;
69527;SDS011;57136;51.986;4.468;2022-11-20T02:22:05;18.85;;;9.20;;
69527;SDS011;57136;51.986;4.468;2022-11-20T02:24:36;19.90;;;9.85;;
69527;SDS011;57136;51.986;4.468;2022-11-20T02:27:06;20.05;;;9.45;;
69527;SDS011;57136;51.986;4.468;2022-11-20T02:29:38;21.00;;;8.60;;
69527;SDS011;57136;51.986;4.468;2022-11-20T02:32:17;17.25;;;9.07;;
69527;SDS011;57136;51.986;4.468;2022-11-20T02:34:53;16.17;;;8.15;;
69527;SDS011;57136;51.986;4.468;2022-11-20T02:37:22;19.17;;;9.27;;
69527;SDS011;57136;51.986;4.468;2022-11-20T02:39:49;17.30;;;8.73;;
69527;SDS011;57136;51.986;4.468;2022-11-20T02:42:16;16.40;;;9.13;;
69527;SDS011;57136;51.986;4.468;2022-11-20T02:44:42;25.20;;;10.07;;
69527;SDS011;57136;51.986;4.468;2022-11-20T02:47:07;19.58;;;9.85;;
69527;SDS011;57136;51.986;4.468;2022-11-20T02:49:33;20.10;;;9.30;;
69527;SDS011;57136;51.986;4.468;2022-11-20T02:51:58;21.70;;;10.23;;
69527;SDS011;57136;51.986;4.468;2022-11-20T02:54:24;20.60;;;9.07;;
69527;SDS011;57136;51.986;4.468;2022-11-20T02:56:49;21.25;;;9.98;;
69527;SDS011;57136;51.986;4.468;2022-11-20T02:59:15;20.75;;;8.98;;
69527;SDS011;57136;51.986;4.468;2022-11-20T03:01:40;18.70;;;9.07;;
69527;SDS011;57136;51.986;4.468;2022-11-20T03:04:06;21.77;;;9.10;;
69527;SDS011;57136;51.986;4.468;2022-11-20T03:06:31;18.33;;;9.15;;
69527;SDS011;57136;51.986;4.468;2022-11-20T03:08:56;20.20;;;10.48;;
69527;SDS011;57136;51.986;4.468;2022-11-20T03:11:22;19.48;;;10.00;;
69527;SDS011;57136;51.986;4.468;2022-11-20T03:13:47;19.23;;;9.68;;
69527;SDS011;57136;51.986;4.468;2022-11-20T03:16:14;20.27;;;10.52;;
69527;SDS011;57136;51.986;4.468;2022-11-20T03:18:44;16.27;;;9.02;;
69527;SDS011;57136;51.986;4.468;2022-11-20T03:21:10;19.38;;;9.38;;
69527;SDS011;57136;51.986;4.468;2022-11-20T03:23:37;20.70;;;9.57;;
69527;SDS011;57136;51.986;4.468;2022-11-20T03:26:24;20.65;;;10.63;;
69527;SDS011;57136;51.986;4.468;2022-11-20T03:31:21;16.27;;;8.75;;
69527;SDS011;57136;51.986;4.468;2022-11-20T03:33:48;16.02;;;8.77;;
69527;SDS011;57136;51.986;4.468;2022-11-20T03:36:15;18.25;;;8.65;;
69527;SDS011;57136;51.986;4.468;2022-11-20T03:38:41;14.02;;;8.38;;
69527;SDS011;57136;51.986;4.468;2022-11-20T03:41:08;16.92;;;9.55;;
69527;SDS011;57136;51.986;4.468;2022-11-20T03:43:39;17.55;;;8.88;;
69527;SDS011;57136;51.986;4.468;2022-11-20T03:46:04;17.40;;;9.70;;
69527;SDS011;57136;51.986;4.468;2022-11-20T03:48:30;15.80;;;9.18;;
69527;SDS011;57136;51.986;4.468;2022-11-20T03:53:48;20.05;;;8.73;;
69527;SDS011;57136;51.986;4.468;2022-11-20T03:56:15;19.80;;;9.43;;
69527;SDS011;57136;51.986;4.468;2022-11-20T03:58:42;20.33;;;9.77;;
69527;SDS011;57136;51.986;4.468;2022-11-20T04:01:09;22.17;;;11.02;;
69527;SDS011;57136;51.986;4.468;2022-11-20T04:03:37;24.73;;;10.63;;
69527;SDS011;57136;51.986;4.468;2022-11-20T04:06:04;15.95;;;9.18;;
69527;SDS011;57136;51.986;4.468;2022-11-20T04:08:32;18.05;;;8.70;;
69527;SDS011;57136;51.986;4.468;2022-11-20T04:11:07;24.40;;;9.63;;
69527;SDS011;57136;51.986;4.468;2022-11-20T04:13:40;20.33;;;9.77;;
69527;SDS011;57136;51.986;4.468;2022-11-20T04:16:06;18.83;;;8.95;;
69527;SDS011;57136;51.986;4.468;2022-11-20T04:18:33;17.27;;;9.05;;
69527;SDS011;57136;51.986;4.468;2022-11-20T04:20:58;18.42;;;9.73;;
69527;SDS011;57136;51.986;4.468;2022-11-20T04:23:24;17.88;;;9.50;;
69527;SDS011;57136;51.986;4.468;2022-11-20T04:25:50;16.90;;;9.43;;
69527;SDS011;57136;51.986;4.468;2022-11-20T04:28:15;20.00;;;9.95;;
69527;SDS011;57136;51.986;4.468;2022-11-20T04:30:41;21.90;;;10.52;;
69527;SDS011;57136;51.986;4.468;2022-11-20T04:33:07;20.48;;;9.57;;
69527;SDS011;57136;51.986;4.468;2022-11-20T04:35:35;18.00;;;9.07;;
69527;SDS011;57136;51.986;4.468;2022-11-20T04:38:01;19.27;;;10.10;;
69527;SDS011;57136;51.986;4.468;2022-11-20T04:40:27;16.27;;;9.40;;
69527;SDS011;57136;51.986;4.468;2022-11-20T04:42:53;22.58;;;9.20;;
69527;SDS011;57136;51.986;4.468;2022-11-20T04:45:19;20.20;;;9.63;;
69527;SDS011;57136;51.986;4.468;2022-11-20T04:47:44;22.75;;;10.80;;
69527;SDS011;57136;51.986;4.468;2022-11-20T04:50:10;19.65;;;9.63;;
69527;SDS011;57136;51.986;4.468;2022-11-20T04:52:36;23.98;;;10.07;;
69527;SDS011;57136;51.986;4.468;2022-11-20T04:55:01;22.42;;;9.68;;
69527;SDS011;57136;51.986;4.468;2022-11-20T04:57:27;16.27;;;8.57;;
69527;SDS011;57136;51.986;4.468;2022-11-20T04:59:52;15.82;;;8.30;;
69527;SDS011;57136;51.986;4.468;2022-11-20T05:02:18;21.33;;;9.50;;
69527;SDS011;57136;51.986;4.468;2022-11-20T05:04:43;21.10;;;9.90;;
69527;SDS011;57136;51.986;4.468;2022-11-20T05:07:08;19.60;;;9.57;;
69527;SDS011;57136;51.986;4.468;2022-11-20T05:09:34;27.40;;;9.43;;
69527;SDS011;57136;51.986;4.468;2022-11-20T05:12:00;18.30;;;9.07;;
69527;SDS011;57136;51.986;4.468;2022-11-20T05:14:25;18.55;;;9.63;;
69527;SDS011;57136;51.986;4.468;2022-11-20T05:16:51;20.58;;;10.50;;
69527;SDS011;57136;51.986;4.468;2022-11-20T05:19:16;15.00;;;8.10;;
69527;SDS011;57136;51.986;4.468;2022-11-20T05:21:41;20.88;;;9.10;;
69527;SDS011;57136;51.986;4.468;2022-11-20T05:24:07;19.38;;;8.88;;
69527;SDS011;57136;51.986;4.468;2022-11-20T05:26:32;19.02;;;10.70;;
69527;SDS011;57136;51.986;4.468;2022-11-20T05:28:58;21.02;;;9.77;;
69527;SDS011;57136;51.986;4.468;2022-11-20T05:31:24;18.73;;;9.40;;
69527;SDS011;57136;51.986;4.468;2022-11-20T05:33:49;19.83;;;9.68;;
69527;SDS011;57136;51.986;4.468;2022-11-20T05:36:15;18.77;;;8.95;;
69527;SDS011;57136;51.986;4.468;2022-11-20T05:38:41;18.38;;;9.68;;
69527;SDS011;57136;51.986;4.468;2022-11-20T05:41:08;17.83;;;8.70;;
69527;SDS011;57136;51.986;4.468;2022-11-20T05:43:42;17.13;;;8.93;;
69527;SDS011;57136;51.986;4.468;2022-11-20T05:46:10;19.77;;;9.48;;
69527;SDS011;57136;51.986;4.468;2022-11-20T05:48:38;19.55;;;9.65;;
69527;SDS011;57136;51.986;4.468;2022-11-20T05:51:05;20.17;;;9.40;;
69527;SDS011;57136;51.986;4.468;2022-11-20T05:53:32;18.10;;;9.35;;
69527;SDS011;57136;51.986;4.468;2022-11-20T05:58:50;22.95;;;10.75;;
69527;SDS011;57136;51.986;4.468;2022-11-20T06:01:23;23.42;;;11.02;;
69527;SDS011;57136;51.986;4.468;2022-11-20T06:06:18;21.17;;;10.15;;
69527;SDS011;57136;51.986;4.468;2022-11-20T06:08:44;24.08;;;11.60;;
69527;SDS011;57136;51.986;4.468;2022-11-20T06:11:10;19.08;;;9.90;;
69527;SDS011;57136;51.986;4.468;2022-11-20T06:13:37;24.25;;;11.23;;
69527;SDS011;57136;51.986;4.468;2022-11-20T06:16:02;21.33;;;10.55;;
69527;SDS011;57136;51.986;4.468;2022-11-20T06:18:29;20.40;;;10.50;;
69527;SDS011;57136;51.986;4.468;2022-11-20T06:21:07;18.27;;;9.95;;
69527;SDS011;57136;51.986;4.468;2022-11-20T06:23:36;20.40;;;10.68;;
69527;SDS011;57136;51.986;4.468;2022-11-20T06:26:02;19.13;;;10.70;;
69527;SDS011;57136;51.986;4.468;2022-11-20T06:28:29;22.70;;;10.75;;
69527;SDS011;57136;51.986;4.468;2022-11-20T06:30:54;25.58;;;10.98;;
69527;SDS011;57136;51.986;4.468;2022-11-20T06:33:20;25.17;;;11.18;;
69527;SDS011;57136;51.986;4.468;2022-11-20T06:35:45;28.73;;;11.30;;
69527;SDS011;57136;51.986;4.468;2022-11-20T06:38:10;16.92;;;10.10;;
69527;SDS011;57136;51.986;4.468;2022-11-20T06:40:38;24.67;;;11.68;;
69527;SDS011;57136;51.986;4.468;2022-11-20T06:43:05;20.63;;;10.77;;
69527;SDS011;57136;51.986;4.468;2022-11-20T06:45:30;26.58;;;12.05;;
69527;SDS011;57136;51.986;4.468;2022-11-20T06:47:57;24.33;;;11.40;;
69527;SDS011;57136;51.986;4.468;2022-11-20T06:50:23;23.10;;;12.48;;
69527;SDS011;57136;51.986;4.468;2022-11-20T06:52:48;22.50;;;11.35;;
69527;SDS011;57136;51.986;4.468;2022-11-20T06:55:13;27.35;;;12.00;;
69527;SDS011;57136;51.986;4.468;2022-11-20T06:57:39;22.90;;;12.55;;
69527;SDS011;57136;51.986;4.468;2022-11-20T07:00:04;22.30;;;12.30;;
69527;SDS011;57136;51.986;4.468;2022-11-20T07:02:30;28.58;;;13.27;;
69527;SDS011;57136;51.986;4.468;2022-11-20T07:04:55;24.27;;;12.98;;
69527;SDS011;57136;51.986;4.468;2022-11-20T07:07:21;20.73;;;11.60;;
69527;SDS011;57136;51.986;4.468;2022-11-20T07:09:46;24.92;;;12.23;;
69527;SDS011;57136;51.986;4.468;2022-11-20T07:12:11;27.20;;;12.60;;
69527;SDS011;57136;51.986;4.468;2022-11-20T07:14:37;22.30;;;12.50;;
69527;SDS011;57136;51.986;4.468;2022-11-20T07:17:02;25.50;;;12.80;;
69527;SDS011;57136;51.986;4.468;2022-11-20T07:19:27;23.58;;;11.75;;
69527;SDS011;57136;51.986;4.468;2022-11-20T07:21:53;26.25;;;12.07;;
69527;SDS011;57136;51.986;4.468;2022-11-20T07:24:18;25.15;;;12.48;;
69527;SDS011;57136;51.986;4.468;2022-11-20T07:26:46;23.73;;;12.35;;
69527;SDS011;57136;51.986;4.468;2022-11-20T07:29:13;23.23;;;11.60;;
69527;SDS011;57136;51.986;4.468;2022-11-20T07:31:38;23.90;;;11.50;;
69527;SDS011;57136;51.986;4.468;2022-11-20T07:34:03;25.92;;;11.82;;
69527;SDS011;57136;51.986;4.468;2022-11-20T07:36:29;23.83;;;12.30;;
69527;SDS011;57136;51.986;4.468;2022-11-20T07:38:54;24.20;;;11.63;;
69527;SDS011;57136;51.986;4.468;2022-11-20T07:41:20;24.05;;;11.80;;
69527;SDS011;57136;51.986;4.468;2022-11-20T07:43:45;24.27;;;13.32;;
69527;SDS011;57136;51.986;4.468;2022-11-20T07:46:10;28.25;;;14.32;;
69527;SDS011;57136;51.986;4.468;2022-11-20T07:48:36;24.75;;;11.75;;
69527;SDS011;57136;51.986;4.468;2022-11-20T07:51:01;26.90;;;12.98;;
69527;SDS011;57136;51.986;4.468;2022-11-20T07:53:27;25.13;;;12.68;;
69527;SDS011;57136;51.986;4.468;2022-11-20T07:55:52;24.52;;;13.57;;
69527;SDS011;57136;51.986;4.468;2022-11-20T07:58:18;28.90;;;13.25;;
69527;SDS011;57136;51.986;4.468;2022-11-20T08:00:45;25.83;;;13.93;;
69527;SDS011;57136;51.986;4.468;2022-11-20T08:03:10;25.83;;;13.60;;
69527;SDS011;57136;51.986;4.468;2022-11-20T08:05:35;25.33;;;14.50;;
69527;SDS011;57136;51.986;4.468;2022-11-20T08:08:02;26.15;;;13.85;;
69527;SDS011;57136;51.986;4.468;2022-11-20T08:10:27;24.73;;;13.40;;
69527;SDS011;57136;51.986;4.468;2022-11-20T08:12:53;26.88;;;13.80;;
69527;SDS011;57136;51.986;4.468;2022-11-20T08:15:38;27.92;;;13.90;;
69527;SDS011;57136;51.986;4.468;2022-11-20T08:18:05;28.63;;;14.35;;
69527;SDS011;57136;51.986;4.468;2022-11-20T08:20:32;27.45;;;13.52;;
69527;SDS011;57136;51.986;4.468;2022-11-20T08:22:59;26.48;;;13.95;;
69527;SDS011;57136;51.986;4.468;2022-11-20T08:25:30;27.85;;;14.32;;
69527;SDS011;57136;51.986;4.468;2022-11-20T08:28:00;29.20;;;14.77;;
69527;SDS011;57136;51.986;4.468;2022-11-20T08:30:27;23.33;;;13.38;;
69527;SDS011;57136;51.986;4.468;2022-11-20T08:32:54;24.42;;;13.38;;
69527;SDS011;57136;51.986;4.468;2022-11-20T08:35:20;29.50;;;15.50;;
69527;SDS011;57136;51.986;4.468;2022-11-20T08:37:46;28.48;;;14.57;;
69527;SDS011;57136;51.986;4.468;2022-11-20T08:40:12;27.42;;;14.60;;
69527;SDS011;57136;51.986;4.468;2022-11-20T08:42:45;26.52;;;15.40;;
69527;SDS011;57136;51.986;4.468;2022-11-20T08:45:16;28.80;;;14.77;;
69527;SDS011;57136;51.986;4.468;2022-11-20T08:47:43;29.00;;;15.60;;
69527;SDS011;57136;51.986;4.468;2022-11-20T08:50:10;30.17;;;14.38;;
69527;SDS011;57136;51.986;4.468;2022-11-20T08:52:36;29.90;;;15.77;;
69527;SDS011;57136;51.986;4.468;2022-11-20T08:55:03;28.15;;;15.02;;
69527;SDS011;57136;51.986;4.468;2022-11-20T08:57:32;28.52;;;15.43;;
69527;SDS011;57136;51.986;4.468;2022-11-20T08:59:59;29.08;;;14.10;;
69527;SDS011;57136;51.986;4.468;2022-11-20T09:02:25;28.77;;;14.80;;
69527;SDS011;57136;51.986;4.468;2022-11-20T09:04:50;27.70;;;15.73;;
69527;SDS011;57136;51.986;4.468;2022-11-20T09:07:16;31.95;;;16.13;;
69527;SDS011;57136;51.986;4.468;2022-11-20T09:09:41;29.55;;;15.35;;
69527;SDS011;57136;51.986;4.468;2022-11-20T09:12:07;28.30;;;15.23;;
69527;SDS011;57136;51.986;4.468;2022-11-20T09:14:32;28.15;;;17.17;;
69527;SDS011;57136;51.986;4.468;2022-11-20T09:16:58;29.52;;;15.25;;
69527;SDS011;57136;51.986;4.468;2022-11-20T09:19:24;31.27;;;16.35;;
69527;SDS011;57136;51.986;4.468;2022-11-20T09:21:49;26.42;;;15.07;;
69527;SDS011;57136;51.986;4.468;2022-11-20T09:24:15;31.70;;;16.00;;
69527;SDS011;57136;51.986;4.468;2022-11-20T09:26:41;29.35;;;16.77;;
69527;SDS011;57136;51.986;4.468;2022-11-20T09:29:06;28.85;;;15.75;;
69527;SDS011;57136;51.986;4.468;2022-11-20T09:31:32;29.67;;;15.25;;
69527;SDS011;57136;51.986;4.468;2022-11-20T09:33:58;30.92;;;15.50;;
69527;SDS011;57136;51.986;4.468;2022-11-20T09:36:23;31.70;;;17.40;;
69527;SDS011;57136;51.986;4.468;2022-11-20T09:38:49;27.30;;;15.73;;
69527;SDS011;57136;51.986;4.468;2022-11-20T09:46:29;30.60;;;16.25;;
69527;SDS011;57136;51.986;4.468;2022-11-20T09:54:19;32.67;;;16.55;;
69527;SDS011;57136;51.986;4.468;2022-11-20T09:56:55;35.35;;;17.77;;
69527;SDS011;57136;51.986;4.468;2022-11-20T10:02:42;27.63;;;15.45;;
69527;SDS011;57136;51.986;4.468;2022-11-20T10:13:49;33.33;;;16.73;;
69527;SDS011;57136;51.986;4.468;2022-11-20T10:30:07;33.15;;;17.40;;
69527;SDS011;57136;51.986;4.468;2022-11-20T10:32:37;31.38;;;17.23;;
69527;SDS011;57136;51.986;4.468;2022-11-20T10:37:53;33.25;;;16.65;;
69527;SDS011;57136;51.986;4.468;2022-11-20T10:40:34;32.55;;;17.52;;
69527;SDS011;57136;51.986;4.468;2022-11-20T10:45:49;31.38;;;17.42;;
69527;SDS011;57136;51.986;4.468;2022-11-20T10:48:21;32.58;;;17.98;;
69527;SDS011;57136;51.986;4.468;2022-11-20T10:50:53;29.42;;;16.83;;
69527;SDS011;57136;51.986;4.468;2022-11-20T10:59:06;32.10;;;16.92;;
69527;SDS011;57136;51.986;4.468;2022-11-20T11:01:44;35.33;;;18.30;;
69527;SDS011;57136;51.986;4.468;2022-11-20T11:04:53;32.45;;;17.77;;
69527;SDS011;57136;51.986;4.468;2022-11-20T11:09:55;35.45;;;18.33;;
69527;SDS011;57136;51.986;4.468;2022-11-20T11:12:22;33.50;;;17.77;;
69527;SDS011;57136;51.986;4.468;2022-11-20T11:14:52;36.33;;;18.85;;
69527;SDS011;57136;51.986;4.468;2022-11-20T11:20:05;34.92;;;19.10;;
69527;SDS011;57136;51.986;4.468;2022-11-20T11:22:49;34.80;;;18.80;;
69527;SDS011;57136;51.986;4.468;2022-11-20T11:25:21;41.63;;;19.58;;
69527;SDS011;57136;51.986;4.468;2022-11-20T11:27:53;43.50;;;21.25;;
69527;SDS011;57136;51.986;4.468;2022-11-20T11:30:21;38.63;;;18.60;;
69527;SDS011;57136;51.986;4.468;2022-11-20T11:32:48;37.55;;;18.92;;
69527;SDS011;57136;51.986;4.468;2022-11-20T11:37:50;37.00;;;18.73;;
69527;SDS011;57136;51.986;4.468;2022-11-20T11:40:19;42.58;;;19.55;;
69527;SDS011;57136;51.986;4.468;2022-11-20T11:42:51;36.75;;;19.20;;
69527;SDS011;57136;51.986;4.468;2022-11-20T11:45:21;36.55;;;20.08;;
69527;SDS011;57136;51.986;4.468;2022-11-20T11:47:47;40.45;;;20.15;;
69527;SDS011;57136;51.986;4.468;2022-11-20T11:50:21;43.00;;;20.50;;
69527;SDS011;57136;51.986;4.468;2022-11-20T11:52:56;41.15;;;19.70;;
69527;SDS011;57136;51.986;4.468;2022-11-20T11:55:26;41.88;;;21.17;;
69527;SDS011;57136;51.986;4.468;2022-11-20T11:57:59;38.53;;;20.35;;
69527;SDS011;57136;51.986;4.468;2022-11-20T12:00:35;39.10;;;20.05;;
69527;SDS011;57136;51.986;4.468;2022-11-20T12:03:15;35.85;;;18.77;;
69527;SDS011;57136;51.986;4.468;2022-11-20T12:05:50;40.13;;;18.67;;
69527;SDS011;57136;51.986;4.468;2022-11-20T12:14:08;41.08;;;20.55;;
69527;SDS011;57136;51.986;4.468;2022-11-20T12:16:36;40.03;;;17.85;;
69527;SDS011;57136;51.986;4.468;2022-11-20T12:19:07;41.45;;;19.30;;
69527;SDS011;57136;51.986;4.468;2022-11-20T12:21:51;42.72;;;19.50;;
69527;SDS011;57136;51.986;4.468;2022-11-20T12:38:37;44.03;;;22.60;;
69527;SDS011;57136;51.986;4.468;2022-11-20T12:41:25;44.10;;;21.20;;
69527;SDS011;57136;51.986;4.468;2022-11-20T12:48:07;39.17;;;19.63;;
69527;SDS011;57136;51.986;4.468;2022-11-20T12:50:28;41.97;;;20.20;;
69527;SDS011;57136;51.986;4.468;2022-11-20T12:53:34;46.05;;;19.83;;
69527;SDS011;57136;51.986;4.468;2022-11-20T12:55:56;39.90;;;19.77;;
69527;SDS011;57136;51.986;4.468;2022-11-20T13:01:09;43.80;;;20.95;;
69527;SDS011;57136;51.986;4.468;2022-11-20T13:03:58;53.50;;;21.42;;
69527;SDS011;57136;51.986;4.468;2022-11-20T13:06:32;39.63;;;19.55;;
69527;SDS011;57136;51.986;4.468;2022-11-20T13:08:58;46.33;;;20.10;;
69527;SDS011;57136;51.986;4.468;2022-11-20T13:11:41;49.55;;;22.23;;
69527;SDS011;57136;51.986;4.468;2022-11-20T13:14:19;46.50;;;21.77;;
69527;SDS011;57136;51.986;4.468;2022-11-20T13:16:57;45.50;;;20.58;;
69527;SDS011;57136;51.986;4.468;2022-11-20T13:19:30;46.42;;;22.40;;
69527;SDS011;57136;51.986;4.468;2022-11-20T13:21:56;45.63;;;21.15;;
69527;SDS011;57136;51.986;4.468;2022-11-20T13:24:23;46.30;;;20.77;;
69527;SDS011;57136;51.986;4.468;2022-11-20T13:27:28;46.15;;;21.92;;
69527;SDS011;57136;51.986;4.468;2022-11-20T13:32:54;49.65;;;22.20;;
69527;SDS011;57136;51.986;4.468;2022-11-20T13:35:32;48.03;;;23.02;;
69527;SDS011;57136;51.986;4.468;2022-11-20T13:40:38;45.17;;;22.42;;
69527;SDS011;57136;51.986;4.468;2022-11-20T13:43:19;52.75;;;22.52;;
69527;SDS011;57136;51.986;4.468;2022-11-20T13:46:00;56.13;;;24.00;;
69527;SDS011;57136;51.986;4.468;2022-11-20T13:48:30;55.97;;;23.05;;
69527;SDS011;57136;51.986;4.468;2022-11-20T14:04:35;46.03;;;22.00;;
69527;SDS011;57136;51.986;4.468;2022-11-20T14:07:06;51.90;;;23.00;;
69527;SDS011;57136;51.986;4.468;2022-11-20T14:09:32;56.40;;;23.92;;
69527;SDS011;57136;51.986;4.468;2022-11-20T14:11:59;57.17;;;24.95;;
69527;SDS011;57136;51.986;4.468;2022-11-20T14:14:26;55.05;;;24.38;;
69527;SDS011;57136;51.986;4.468;2022-11-20T14:17:07;61.03;;;23.70;;
69527;SDS011;57136;51.986;4.468;2022-11-20T14:19:42;62.33;;;24.42;;
69527;SDS011;57136;51.986;4.468;2022-11-20T14:24:39;59.22;;;24.20;;
69527;SDS011;57136;51.986;4.468;2022-11-20T14:27:04;57.60;;;24.42;;
69527;SDS011;57136;51.986;4.468;2022-11-20T14:29:36;61.30;;;25.83;;
69527;SDS011;57136;51.986;4.468;2022-11-20T14:32:03;57.42;;;24.77;;
69527;SDS011;57136;51.986;4.468;2022-11-20T14:34:30;56.97;;;25.40;;
69527;SDS011;57136;51.986;4.468;2022-11-20T14:37:02;63.13;;;25.77;;
69527;SDS011;57136;51.986;4.468;2022-11-20T14:39:36;67.07;;;26.52;;
69527;SDS011;57136;51.986;4.468;2022-11-20T14:42:15;62.00;;;24.90;;
69527;SDS011;57136;51.986;4.468;2022-11-20T14:44:42;61.03;;;25.98;;
69527;SDS011;57136;51.986;4.468;2022-11-20T14:47:10;67.38;;;25.75;;
69527;SDS011;57136;51.986;4.468;2022-11-20T14:49:38;61.10;;;25.27;;
69527;SDS011;57136;51.986;4.468;2022-11-20T14:52:12;57.15;;;24.55;;
69527;SDS011;57136;51.986;4.468;2022-11-20T14:54:44;56.97;;;23.35;;
69527;SDS011;57136;51.986;4.468;2022-11-20T14:57:19;65.43;;;26.60;;
69527;SDS011;57136;51.986;4.468;2022-11-20T15:02:34;61.45;;;24.98;;
69527;SDS011;57136;51.986;4.468;2022-11-20T15:05:03;64.95;;;25.85;;
69527;SDS011;57136;51.986;4.468;2022-11-20T15:07:33;67.90;;;26.35;;
69527;SDS011;57136;51.986;4.468;2022-11-20T15:10:08;68.38;;;25.30;;
69527;SDS011;57136;51.986;4.468;2022-11-20T15:12:37;70.32;;;27.17;;
69527;SDS011;57136;51.986;4.468;2022-11-20T15:15:05;65.10;;;26.08;;
69527;SDS011;57136;51.986;4.468;2022-11-20T15:17:36;58.25;;;24.35;;
69527;SDS011;57136;51.986;4.468;2022-11-20T15:20:05;64.63;;;24.42;;
69527;SDS011;57136;51.986;4.468;2022-11-20T15:22:38;62.45;;;25.58;;
69527;SDS011;57136;51.986;4.468;2022-11-20T15:25:10;59.58;;;23.92;;
69527;SDS011;57136;51.986;4.468;2022-11-20T15:27:40;61.40;;;24.88;;
69527;SDS011;57136;51.986;4.468;2022-11-20T15:30:12;72.20;;;27.30;;
69527;SDS011;57136;51.986;4.468;2022-11-20T15:32:39;59.03;;;23.15;;
69527;SDS011;57136;51.986;4.468;2022-11-20T15:35:05;64.43;;;24.60;;
69527;SDS011;57136;51.986;4.468;2022-11-20T15:37:33;64.93;;;25.42;;
69527;SDS011;57136;51.986;4.468;2022-11-20T15:39:58;55.40;;;24.80;;
69527;SDS011;57136;51.986;4.468;2022-11-20T15:42:24;57.75;;;25.85;;
69527;SDS011;57136;51.986;4.468;2022-11-20T15:44:49;50.15;;;21.85;;
69527;SDS011;57136;51.986;4.468;2022-11-20T15:47:14;58.00;;;25.10;;
69527;SDS011;57136;51.986;4.468;2022-11-20T15:49:42;58.40;;;22.40;;
69527;SDS011;57136;51.986;4.468;2022-11-20T15:52:08;55.88;;;24.25;;
69527;SDS011;57136;51.986;4.468;2022-11-20T15:54:35;57.70;;;26.20;;
69527;SDS011;57136;51.986;4.468;2022-11-20T15:57:00;56.88;;;24.77;;
69527;SDS011;57136;51.986;4.468;2022-11-20T15:59:27;65.32;;;25.17;;
69527;SDS011;57136;51.986;4.468;2022-11-20T16:01:53;61.47;;;26.08;;
69527;SDS011;57136;51.986;4.468;2022-11-20T16:04:19;67.10;;;26.67;;
69527;SDS011;57136;51.986;4.468;2022-11-20T16:06:44;59.25;;;25.60;;
69527;SDS011;57136;51.986;4.468;2022-11-20T16:09:09;62.72;;;26.90;;
69527;SDS011;57136;51.986;4.468;2022-11-20T16:11:35;62.92;;;26.50;;
69527;SDS011;57136;51.986;4.468;2022-11-20T16:14:02;67.40;;;29.58;;
69527;SDS011;57136;51.986;4.468;2022-11-20T16:16:46;77.60;;;31.55;;
69527;SDS011;57136;51.986;4.468;2022-11-20T16:19:12;62.15;;;28.33;;
69527;SDS011;57136;51.986;4.468;2022-11-20T16:21:39;67.55;;;28.40;;
69527;SDS011;57136;51.986;4.468;2022-11-20T16:24:06;59.38;;;26.73;;
69527;SDS011;57136;51.986;4.468;2022-11-20T16:26:34;57.60;;;25.95;;
69527;SDS011;57136;51.986;4.468;2022-11-20T16:29:00;72.38;;;33.10;;
69527;SDS011;57136;51.986;4.468;2022-11-20T16:31:28;64.47;;;27.98;;
69527;SDS011;57136;51.986;4.468;2022-11-20T16:33:59;63.10;;;28.52;;
69527;SDS011;57136;51.986;4.468;2022-11-20T16:36:27;69.63;;;28.63;;
69527;SDS011;57136;51.986;4.468;2022-11-20T16:38:57;62.58;;;30.80;;